sensor_id;sensor_type;location;lat;lon;timestamp;P1;durP1;ratioP1;P2;durP2;ratioP2
58752;SDS011;44525;46.052;13.610;2022-10-13T00:01:11;24.10;;;10.57;;
58752;SDS011;44525;46.052;13.610;2022-10-13T00:03:41;19.52;;;10.77;;
58752;SDS011;44525;46.052;13.610;2022-10-13T00:06:11;21.80;;;10.98;;
58752;SDS011;44525;46.052;13.610;2022-10-13T00:08:38;22.27;;;10.63;;
58752;SDS011;44525;46.052;13.610;2022-10-13T00:11:12;24.80;;;11.25;;
58752;SDS011;44525;46.052;13.610;2022-10-13T00:13:38;17.08;;;11.13;;
58752;SDS011;44525;46.052;13.610;2022-10-13T00:16:03;19.38;;;11.45;;
58752;SDS011;44525;46.052;13.610;2022-10-13T00:18:31;20.92;;;11.13;;
58752;SDS011;44525;46.052;13.610;2022-10-13T00:20:57;22.92;;;10.60;;
58752;SDS011;44525;46.052;13.610;2022-10-13T00:23:22;20.00;;;10.80;;
58752;SDS011;44525;46.052;13.610;2022-10-13T00:25:48;19.38;;;11.55;;
58752;SDS011;44525;46.052;13.610;2022-10-13T00:28:15;20.33;;;12.32;;
58752;SDS011;44525;46.052;13.610;2022-10-13T00:30:43;18.63;;;11.27;;
58752;SDS011;44525;46.052;13.610;2022-10-13T00:33:09;19.02;;;11.90;;
58752;SDS011;44525;46.052;13.610;2022-10-13T00:35:42;19.30;;;10.25;;
58752;SDS011;44525;46.052;13.610;2022-10-13T00:38:12;15.88;;;10.07;;
58752;SDS011;44525;46.052;13.610;2022-10-13T00:40:48;19.52;;;10.85;;
58752;SDS011;44525;46.052;13.610;2022-10-13T00:43:20;18.38;;;10.60;;
58752;SDS011;44525;46.052;13.610;2022-10-13T00:46:12;24.25;;;11.32;;
58752;SDS011;44525;46.052;13.610;2022-10-13T00:48:39;17.25;;;11.00;;
58752;SDS011;44525;46.052;13.610;2022-10-13T00:51:06;19.52;;;11.32;;
58752;SDS011;44525;46.052;13.610;2022-10-13T00:53:34;26.67;;;10.98;;
58752;SDS011;44525;46.052;13.610;2022-10-13T00:56:02;20.95;;;11.80;;
58752;SDS011;44525;46.052;13.610;2022-10-13T00:58:31;17.48;;;10.80;;
58752;SDS011;44525;46.052;13.610;2022-10-13T01:01:00;18.60;;;10.88;;
58752;SDS011;44525;46.052;13.610;2022-10-13T01:03:29;22.48;;;12.40;;
58752;SDS011;44525;46.052;13.610;2022-10-13T01:05:56;18.42;;;10.55;;
58752;SDS011;44525;46.052;13.610;2022-10-13T01:08:23;22.30;;;12.43;;
58752;SDS011;44525;46.052;13.610;2022-10-13T01:10:57;20.33;;;10.63;;
58752;SDS011;44525;46.052;13.610;2022-10-13T01:21:34;18.35;;;11.07;;
58752;SDS011;44525;46.052;13.610;2022-10-13T01:31:53;19.88;;;11.38;;
58752;SDS011;44525;46.052;13.610;2022-10-13T01:34:40;24.10;;;12.27;;
58752;SDS011;44525;46.052;13.610;2022-10-13T01:40:06;27.73;;;12.77;;
58752;SDS011;44525;46.052;13.610;2022-10-13T01:43:00;20.83;;;11.93;;
58752;SDS011;44525;46.052;13.610;2022-10-13T01:45:31;21.60;;;11.65;;
58752;SDS011;44525;46.052;13.610;2022-10-13T01:48:01;21.63;;;11.45;;
58752;SDS011;44525;46.052;13.610;2022-10-13T01:50:30;22.00;;;12.55;;
58752;SDS011;44525;46.052;13.610;2022-10-13T01:52:58;23.23;;;12.45;;
58752;SDS011;44525;46.052;13.610;2022-10-13T01:55:27;22.30;;;12.63;;
58752;SDS011;44525;46.052;13.610;2022-10-13T01:57:53;20.42;;;11.00;;
58752;SDS011;44525;46.052;13.610;2022-10-13T02:00:20;22.90;;;11.65;;
58752;SDS011;44525;46.052;13.610;2022-10-13T02:03:08;22.65;;;12.48;;
58752;SDS011;44525;46.052;13.610;2022-10-13T02:08:30;24.65;;;13.10;;
58752;SDS011;44525;46.052;13.610;2022-10-13T02:13:56;18.75;;;11.50;;
58752;SDS011;44525;46.052;13.610;2022-10-13T02:16:23;22.30;;;12.82;;
58752;SDS011;44525;46.052;13.610;2022-10-13T02:18:50;22.58;;;11.77;;
58752;SDS011;44525;46.052;13.610;2022-10-13T02:21:17;25.95;;;13.07;;
58752;SDS011;44525;46.052;13.610;2022-10-13T02:23:43;31.38;;;13.40;;
58752;SDS011;44525;46.052;13.610;2022-10-13T02:26:09;23.10;;;12.23;;
58752;SDS011;44525;46.052;13.610;2022-10-13T02:28:35;20.95;;;13.23;;
58752;SDS011;44525;46.052;13.610;2022-10-13T02:31:02;21.08;;;13.05;;
58752;SDS011;44525;46.052;13.610;2022-10-13T02:33:28;25.42;;;12.88;;
58752;SDS011;44525;46.052;13.610;2022-10-13T02:35:53;21.08;;;13.43;;
58752;SDS011;44525;46.052;13.610;2022-10-13T02:38:19;20.00;;;12.38;;
58752;SDS011;44525;46.052;13.610;2022-10-13T02:40:44;28.10;;;14.95;;
58752;SDS011;44525;46.052;13.610;2022-10-13T02:43:10;28.67;;;13.73;;
58752;SDS011;44525;46.052;13.610;2022-10-13T02:45:35;24.88;;;14.25;;
58752;SDS011;44525;46.052;13.610;2022-10-13T02:48:01;25.17;;;14.43;;
58752;SDS011;44525;46.052;13.610;2022-10-13T02:50:27;28.80;;;14.68;;
58752;SDS011;44525;46.052;13.610;2022-10-13T02:52:52;21.45;;;13.65;;
58752;SDS011;44525;46.052;13.610;2022-10-13T02:55:18;25.95;;;14.00;;
58752;SDS011;44525;46.052;13.610;2022-10-13T02:57:43;25.10;;;14.23;;
58752;SDS011;44525;46.052;13.610;2022-10-13T03:00:09;21.88;;;14.38;;
58752;SDS011;44525;46.052;13.610;2022-10-13T03:02:35;36.33;;;14.05;;
58752;SDS011;44525;46.052;13.610;2022-10-13T03:05:00;26.30;;;14.73;;
58752;SDS011;44525;46.052;13.610;2022-10-13T03:07:26;27.40;;;13.95;;
58752;SDS011;44525;46.052;13.610;2022-10-13T03:09:51;26.05;;;13.23;;
58752;SDS011;44525;46.052;13.610;2022-10-13T03:12:17;24.17;;;13.85;;
58752;SDS011;44525;46.052;13.610;2022-10-13T03:14:43;29.63;;;13.85;;
58752;SDS011;44525;46.052;13.610;2022-10-13T03:17:08;23.90;;;13.98;;
58752;SDS011;44525;46.052;13.610;2022-10-13T03:19:33;22.55;;;13.52;;
58752;SDS011;44525;46.052;13.610;2022-10-13T03:21:59;20.48;;;13.52;;
58752;SDS011;44525;46.052;13.610;2022-10-13T03:24:24;25.02;;;13.30;;
58752;SDS011;44525;46.052;13.610;2022-10-13T03:26:50;23.90;;;13.65;;
58752;SDS011;44525;46.052;13.610;2022-10-13T03:29:16;22.85;;;12.57;;
58752;SDS011;44525;46.052;13.610;2022-10-13T03:31:42;21.55;;;13.70;;
58752;SDS011;44525;46.052;13.610;2022-10-13T03:34:08;25.02;;;14.35;;
58752;SDS011;44525;46.052;13.610;2022-10-13T03:36:34;20.67;;;14.13;;
58752;SDS011;44525;46.052;13.610;2022-10-13T03:39:00;25.15;;;14.02;;
58752;SDS011;44525;46.052;13.610;2022-10-13T03:41:25;23.83;;;14.35;;
58752;SDS011;44525;46.052;13.610;2022-10-13T03:43:51;23.60;;;13.98;;
58752;SDS011;44525;46.052;13.610;2022-10-13T03:46:16;26.02;;;14.70;;
58752;SDS011;44525;46.052;13.610;2022-10-13T03:48:43;24.30;;;14.40;;
58752;SDS011;44525;46.052;13.610;2022-10-13T03:51:12;22.80;;;13.68;;
58752;SDS011;44525;46.052;13.610;2022-10-13T03:53:40;24.90;;;14.40;;
58752;SDS011;44525;46.052;13.610;2022-10-13T03:56:05;28.90;;;13.68;;
58752;SDS011;44525;46.052;13.610;2022-10-13T03:58:31;24.52;;;13.73;;
58752;SDS011;44525;46.052;13.610;2022-10-13T04:01:00;26.02;;;14.70;;
58752;SDS011;44525;46.052;13.610;2022-10-13T04:03:28;30.52;;;15.65;;
58752;SDS011;44525;46.052;13.610;2022-10-13T04:05:54;25.08;;;14.93;;
58752;SDS011;44525;46.052;13.610;2022-10-13T04:08:19;29.40;;;17.35;;
58752;SDS011;44525;46.052;13.610;2022-10-13T04:10:45;26.30;;;13.90;;
58752;SDS011;44525;46.052;13.610;2022-10-13T04:13:10;24.98;;;14.98;;
58752;SDS011;44525;46.052;13.610;2022-10-13T04:15:36;24.80;;;14.00;;
58752;SDS011;44525;46.052;13.610;2022-10-13T04:18:05;26.20;;;14.10;;
58752;SDS011;44525;46.052;13.610;2022-10-13T04:20:38;25.77;;;14.38;;
58752;SDS011;44525;46.052;13.610;2022-10-13T04:23:04;25.85;;;15.00;;
58752;SDS011;44525;46.052;13.610;2022-10-13T04:25:30;22.65;;;14.02;;
58752;SDS011;44525;46.052;13.610;2022-10-13T04:27:59;22.98;;;14.73;;
58752;SDS011;44525;46.052;13.610;2022-10-13T04:30:24;22.60;;;14.75;;
58752;SDS011;44525;46.052;13.610;2022-10-13T04:32:50;28.70;;;14.68;;
58752;SDS011;44525;46.052;13.610;2022-10-13T04:35:15;24.25;;;14.85;;
58752;SDS011;44525;46.052;13.610;2022-10-13T04:37:41;29.92;;;15.88;;
58752;SDS011;44525;46.052;13.610;2022-10-13T04:40:06;30.92;;;16.20;;
58752;SDS011;44525;46.052;13.610;2022-10-13T04:42:32;25.30;;;14.95;;
58752;SDS011;44525;46.052;13.610;2022-10-13T04:44:58;24.70;;;14.70;;
58752;SDS011;44525;46.052;13.610;2022-10-13T04:47:23;31.48;;;15.65;;
58752;SDS011;44525;46.052;13.610;2022-10-13T04:49:49;22.45;;;14.35;;
58752;SDS011;44525;46.052;13.610;2022-10-13T04:52:14;23.02;;;14.77;;
58752;SDS011;44525;46.052;13.610;2022-10-13T04:54:39;24.90;;;13.68;;
58752;SDS011;44525;46.052;13.610;2022-10-13T04:57:06;23.90;;;14.88;;
58752;SDS011;44525;46.052;13.610;2022-10-13T04:59:31;25.75;;;14.35;;
58752;SDS011;44525;46.052;13.610;2022-10-13T05:01:57;22.77;;;13.25;;
58752;SDS011;44525;46.052;13.610;2022-10-13T05:04:22;25.08;;;14.50;;
58752;SDS011;44525;46.052;13.610;2022-10-13T05:06:48;21.25;;;14.25;;
58752;SDS011;44525;46.052;13.610;2022-10-13T05:09:13;27.63;;;15.55;;
58752;SDS011;44525;46.052;13.610;2022-10-13T05:11:40;27.13;;;14.75;;
58752;SDS011;44525;46.052;13.610;2022-10-13T05:14:06;25.30;;;13.82;;
58752;SDS011;44525;46.052;13.610;2022-10-13T05:16:31;29.70;;;14.48;;
58752;SDS011;44525;46.052;13.610;2022-10-13T05:18:57;24.42;;;15.02;;
58752;SDS011;44525;46.052;13.610;2022-10-13T05:21:24;27.38;;;15.20;;
58752;SDS011;44525;46.052;13.610;2022-10-13T05:23:51;24.52;;;14.20;;
58752;SDS011;44525;46.052;13.610;2022-10-13T05:26:19;31.60;;;15.85;;
58752;SDS011;44525;46.052;13.610;2022-10-13T05:28:45;26.45;;;15.93;;
58752;SDS011;44525;46.052;13.610;2022-10-13T05:31:12;24.25;;;14.23;;
58752;SDS011;44525;46.052;13.610;2022-10-13T05:33:38;24.25;;;14.18;;
58752;SDS011;44525;46.052;13.610;2022-10-13T05:36:08;25.85;;;14.55;;
58752;SDS011;44525;46.052;13.610;2022-10-13T05:38:35;25.50;;;14.25;;
58752;SDS011;44525;46.052;13.610;2022-10-13T05:41:03;26.58;;;14.52;;
58752;SDS011;44525;46.052;13.610;2022-10-13T05:43:30;25.77;;;13.60;;
58752;SDS011;44525;46.052;13.610;2022-10-13T05:45:57;24.15;;;14.65;;
58752;SDS011;44525;46.052;13.610;2022-10-13T05:48:23;21.40;;;14.55;;
58752;SDS011;44525;46.052;13.610;2022-10-13T05:50:49;27.77;;;14.93;;
58752;SDS011;44525;46.052;13.610;2022-10-13T05:53:15;25.98;;;14.40;;
58752;SDS011;44525;46.052;13.610;2022-10-13T05:55:41;28.58;;;14.80;;
58752;SDS011;44525;46.052;13.610;2022-10-13T05:58:07;27.42;;;14.48;;
58752;SDS011;44525;46.052;13.610;2022-10-13T06:00:33;24.15;;;14.75;;
58752;SDS011;44525;46.052;13.610;2022-10-13T06:03:06;24.98;;;14.68;;
58752;SDS011;44525;46.052;13.610;2022-10-13T06:05:38;25.00;;;15.02;;
58752;SDS011;44525;46.052;13.610;2022-10-13T06:08:04;23.88;;;14.88;;
58752;SDS011;44525;46.052;13.610;2022-10-13T06:10:30;26.35;;;15.13;;
58752;SDS011;44525;46.052;13.610;2022-10-13T06:12:56;33.47;;;15.60;;
58752;SDS011;44525;46.052;13.610;2022-10-13T06:15:21;26.15;;;15.85;;
58752;SDS011;44525;46.052;13.610;2022-10-13T06:17:47;27.75;;;15.80;;
58752;SDS011;44525;46.052;13.610;2022-10-13T06:20:12;29.90;;;15.27;;
58752;SDS011;44525;46.052;13.610;2022-10-13T06:22:38;26.33;;;15.82;;
58752;SDS011;44525;46.052;13.610;2022-10-13T06:25:04;32.97;;;15.60;;
58752;SDS011;44525;46.052;13.610;2022-10-13T06:27:31;33.72;;;16.45;;
58752;SDS011;44525;46.052;13.610;2022-10-13T06:29:57;29.23;;;16.08;;
58752;SDS011;44525;46.052;13.610;2022-10-13T06:32:22;27.58;;;16.63;;
58752;SDS011;44525;46.052;13.610;2022-10-13T06:34:48;28.08;;;15.43;;
58752;SDS011;44525;46.052;13.610;2022-10-13T06:37:14;27.15;;;14.20;;
58752;SDS011;44525;46.052;13.610;2022-10-13T06:39:39;26.02;;;14.50;;
58752;SDS011;44525;46.052;13.610;2022-10-13T06:42:06;25.33;;;15.15;;
58752;SDS011;44525;46.052;13.610;2022-10-13T06:44:31;27.35;;;15.23;;
58752;SDS011;44525;46.052;13.610;2022-10-13T06:46:57;30.05;;;16.23;;
58752;SDS011;44525;46.052;13.610;2022-10-13T06:49:23;35.78;;;16.25;;
58752;SDS011;44525;46.052;13.610;2022-10-13T06:51:48;22.48;;;14.13;;
58752;SDS011;44525;46.052;13.610;2022-10-13T06:54:14;31.05;;;13.68;;
58752;SDS011;44525;46.052;13.610;2022-10-13T06:56:40;31.80;;;14.27;;
58752;SDS011;44525;46.052;13.610;2022-10-13T06:59:06;24.85;;;14.13;;
58752;SDS011;44525;46.052;13.610;2022-10-13T07:01:31;27.02;;;14.90;;
58752;SDS011;44525;46.052;13.610;2022-10-13T07:03:57;23.42;;;13.43;;
58752;SDS011;44525;46.052;13.610;2022-10-13T07:06:23;22.25;;;13.95;;
58752;SDS011;44525;46.052;13.610;2022-10-13T07:08:48;22.80;;;13.38;;
58752;SDS011;44525;46.052;13.610;2022-10-13T07:11:14;25.25;;;14.40;;
58752;SDS011;44525;46.052;13.610;2022-10-13T07:13:40;20.85;;;14.55;;
58752;SDS011;44525;46.052;13.610;2022-10-13T07:16:06;22.00;;;13.32;;
58752;SDS011;44525;46.052;13.610;2022-10-13T07:18:33;23.80;;;14.38;;
58752;SDS011;44525;46.052;13.610;2022-10-13T07:20:59;24.20;;;14.05;;
58752;SDS011;44525;46.052;13.610;2022-10-13T07:23:25;21.42;;;13.38;;
58752;SDS011;44525;46.052;13.610;2022-10-13T07:25:51;22.65;;;14.43;;
58752;SDS011;44525;46.052;13.610;2022-10-13T07:28:17;19.75;;;13.43;;
58752;SDS011;44525;46.052;13.610;2022-10-13T07:30:43;19.40;;;13.75;;
58752;SDS011;44525;46.052;13.610;2022-10-13T07:33:09;21.02;;;12.68;;
58752;SDS011;44525;46.052;13.610;2022-10-13T07:35:38;20.52;;;14.40;;
58752;SDS011;44525;46.052;13.610;2022-10-13T07:38:04;21.85;;;12.85;;
58752;SDS011;44525;46.052;13.610;2022-10-13T07:40:30;21.17;;;13.57;;
58752;SDS011;44525;46.052;13.610;2022-10-13T07:42:55;20.75;;;12.45;;
58752;SDS011;44525;46.052;13.610;2022-10-13T07:45:21;21.40;;;12.98;;
58752;SDS011;44525;46.052;13.610;2022-10-13T07:47:47;18.83;;;12.65;;
58752;SDS011;44525;46.052;13.610;2022-10-13T07:50:12;20.23;;;12.55;;
58752;SDS011;44525;46.052;13.610;2022-10-13T07:52:38;18.23;;;12.70;;
58752;SDS011;44525;46.052;13.610;2022-10-13T07:55:04;20.30;;;12.93;;
58752;SDS011;44525;46.052;13.610;2022-10-13T07:57:30;19.77;;;12.65;;
58752;SDS011;44525;46.052;13.610;2022-10-13T07:59:55;21.38;;;13.25;;
58752;SDS011;44525;46.052;13.610;2022-10-13T08:02:21;24.35;;;13.38;;
58752;SDS011;44525;46.052;13.610;2022-10-13T08:04:46;18.63;;;12.52;;
58752;SDS011;44525;46.052;13.610;2022-10-13T08:07:12;21.05;;;13.93;;
58752;SDS011;44525;46.052;13.610;2022-10-13T08:09:37;21.92;;;12.10;;
58752;SDS011;44525;46.052;13.610;2022-10-13T08:12:03;18.05;;;12.65;;
58752;SDS011;44525;46.052;13.610;2022-10-13T08:14:29;20.60;;;12.20;;
58752;SDS011;44525;46.052;13.610;2022-10-13T08:16:55;21.17;;;12.48;;
58752;SDS011;44525;46.052;13.610;2022-10-13T08:19:22;18.27;;;12.57;;
58752;SDS011;44525;46.052;13.610;2022-10-13T08:21:50;17.80;;;12.18;;
58752;SDS011;44525;46.052;13.610;2022-10-13T08:24:16;19.88;;;11.40;;
58752;SDS011;44525;46.052;13.610;2022-10-13T08:26:42;21.20;;;12.13;;
58752;SDS011;44525;46.052;13.610;2022-10-13T08:29:09;18.67;;;12.73;;
58752;SDS011;44525;46.052;13.610;2022-10-13T08:31:35;21.25;;;13.38;;
58752;SDS011;44525;46.052;13.610;2022-10-13T08:34:00;18.73;;;13.00;;
58752;SDS011;44525;46.052;13.610;2022-10-13T08:36:26;21.40;;;13.63;;
58752;SDS011;44525;46.052;13.610;2022-10-13T08:38:54;19.98;;;12.90;;
58752;SDS011;44525;46.052;13.610;2022-10-13T08:41:23;22.63;;;12.90;;
58752;SDS011;44525;46.052;13.610;2022-10-13T08:43:52;21.10;;;12.77;;
58752;SDS011;44525;46.052;13.610;2022-10-13T08:46:32;19.35;;;13.50;;
58752;SDS011;44525;46.052;13.610;2022-10-13T08:49:06;21.58;;;13.15;;
58752;SDS011;44525;46.052;13.610;2022-10-13T08:51:31;18.52;;;12.55;;
58752;SDS011;44525;46.052;13.610;2022-10-13T08:53:58;22.63;;;12.93;;
58752;SDS011;44525;46.052;13.610;2022-10-13T08:56:25;23.50;;;14.10;;
58752;SDS011;44525;46.052;13.610;2022-10-13T08:58:55;21.65;;;13.13;;
58752;SDS011;44525;46.052;13.610;2022-10-13T09:01:32;23.50;;;13.57;;
58752;SDS011;44525;46.052;13.610;2022-10-13T09:06:41;19.45;;;12.75;;
58752;SDS011;44525;46.052;13.610;2022-10-13T09:09:12;18.70;;;12.15;;
58752;SDS011;44525;46.052;13.610;2022-10-13T09:11:49;19.85;;;13.18;;
58752;SDS011;44525;46.052;13.610;2022-10-13T09:14:25;19.60;;;12.40;;
58752;SDS011;44525;46.052;13.610;2022-10-13T09:16:55;16.95;;;11.55;;
58752;SDS011;44525;46.052;13.610;2022-10-13T09:19:36;19.48;;;12.48;;
58752;SDS011;44525;46.052;13.610;2022-10-13T09:25:21;19.98;;;12.23;;
58752;SDS011;44525;46.052;13.610;2022-10-13T09:27:57;20.40;;;12.43;;
58752;SDS011;44525;46.052;13.610;2022-10-13T09:35:40;21.98;;;12.52;;
58752;SDS011;44525;46.052;13.610;2022-10-13T09:38:27;17.33;;;11.88;;
58752;SDS011;44525;46.052;13.610;2022-10-13T09:40:59;20.30;;;12.65;;
58752;SDS011;44525;46.052;13.610;2022-10-13T09:43:36;17.33;;;11.90;;
58752;SDS011;44525;46.052;13.610;2022-10-13T09:46:18;21.83;;;12.40;;
58752;SDS011;44525;46.052;13.610;2022-10-13T09:48:48;18.75;;;12.10;;
58752;SDS011;44525;46.052;13.610;2022-10-13T09:51:32;19.38;;;11.43;;
58752;SDS011;44525;46.052;13.610;2022-10-13T09:53:58;18.02;;;12.07;;
58752;SDS011;44525;46.052;13.610;2022-10-13T09:56:40;20.80;;;12.18;;
58752;SDS011;44525;46.052;13.610;2022-10-13T10:01:51;20.25;;;12.23;;
58752;SDS011;44525;46.052;13.610;2022-10-13T10:04:21;17.80;;;11.95;;
58752;SDS011;44525;46.052;13.610;2022-10-13T10:06:50;21.17;;;12.77;;
58752;SDS011;44525;46.052;13.610;2022-10-13T10:14:27;22.23;;;13.25;;
58752;SDS011;44525;46.052;13.610;2022-10-13T10:30:35;20.15;;;13.60;;
58752;SDS011;44525;46.052;13.610;2022-10-13T10:33:33;21.83;;;13.40;;
58752;SDS011;44525;46.052;13.610;2022-10-13T10:36:11;21.02;;;13.48;;
58752;SDS011;44525;46.052;13.610;2022-10-13T10:38:55;22.17;;;13.93;;
58752;SDS011;44525;46.052;13.610;2022-10-13T10:44:30;19.35;;;13.48;;
58752;SDS011;44525;46.052;13.610;2022-10-13T10:47:04;21.75;;;12.98;;
58752;SDS011;44525;46.052;13.610;2022-10-13T10:49:33;20.67;;;12.77;;
58752;SDS011;44525;46.052;13.610;2022-10-13T10:52:01;19.45;;;12.80;;
58752;SDS011;44525;46.052;13.610;2022-10-13T11:05:21;20.40;;;12.70;;
58752;SDS011;44525;46.052;13.610;2022-10-13T11:07:53;16.58;;;11.70;;
58752;SDS011;44525;46.052;13.610;2022-10-13T11:10:20;19.35;;;12.75;;
58752;SDS011;44525;46.052;13.610;2022-10-13T11:15:21;20.48;;;13.45;;
58752;SDS011;44525;46.052;13.610;2022-10-13T11:17:49;18.60;;;12.13;;
58752;SDS011;44525;46.052;13.610;2022-10-13T11:30:49;18.90;;;12.65;;
58752;SDS011;44525;46.052;13.610;2022-10-13T11:36:34;19.20;;;12.50;;
58752;SDS011;44525;46.052;13.610;2022-10-13T11:53:39;17.75;;;12.10;;
58752;SDS011;44525;46.052;13.610;2022-10-13T11:56:48;20.15;;;12.77;;
58752;SDS011;44525;46.052;13.610;2022-10-13T12:01:56;18.10;;;12.07;;
58752;SDS011;44525;46.052;13.610;2022-10-13T12:04:29;17.35;;;12.38;;
58752;SDS011;44525;46.052;13.610;2022-10-13T12:07:01;21.08;;;11.90;;
58752;SDS011;44525;46.052;13.610;2022-10-13T12:09:30;22.33;;;11.95;;
58752;SDS011;44525;46.052;13.610;2022-10-13T12:11:57;17.23;;;11.75;;
58752;SDS011;44525;46.052;13.610;2022-10-13T12:14:28;15.98;;;11.43;;
58752;SDS011;44525;46.052;13.610;2022-10-13T12:16:57;14.25;;;11.13;;
58752;SDS011;44525;46.052;13.610;2022-10-13T12:19:25;16.92;;;11.25;;
58752;SDS011;44525;46.052;13.610;2022-10-13T12:21:53;15.07;;;11.60;;
58752;SDS011;44525;46.052;13.610;2022-10-13T12:24:21;16.38;;;11.60;;
58752;SDS011;44525;46.052;13.610;2022-10-13T12:26:48;19.17;;;12.15;;
58752;SDS011;44525;46.052;13.610;2022-10-13T12:29:15;19.45;;;12.43;;
58752;SDS011;44525;46.052;13.610;2022-10-13T12:31:43;18.42;;;11.82;;
58752;SDS011;44525;46.052;13.610;2022-10-13T12:34:22;16.38;;;11.02;;
58752;SDS011;44525;46.052;13.610;2022-10-13T12:36:54;16.55;;;11.13;;
58752;SDS011;44525;46.052;13.610;2022-10-13T12:39:19;16.13;;;12.05;;
58752;SDS011;44525;46.052;13.610;2022-10-13T12:41:46;14.55;;;10.07;;
58752;SDS011;44525;46.052;13.610;2022-10-13T12:44:13;16.83;;;11.35;;
58752;SDS011;44525;46.052;13.610;2022-10-13T12:46:44;17.45;;;10.82;;
58752;SDS011;44525;46.052;13.610;2022-10-13T12:49:22;19.55;;;10.95;;
58752;SDS011;44525;46.052;13.610;2022-10-13T12:51:57;27.63;;;11.70;;
58752;SDS011;44525;46.052;13.610;2022-10-13T12:54:50;20.35;;;11.77;;
58752;SDS011;44525;46.052;13.610;2022-10-13T13:00:16;27.20;;;11.70;;
58752;SDS011;44525;46.052;13.610;2022-10-13T13:08:44;16.70;;;10.52;;
58752;SDS011;44525;46.052;13.610;2022-10-13T13:11:22;18.00;;;11.00;;
58752;SDS011;44525;46.052;13.610;2022-10-13T13:19:47;18.77;;;11.05;;
58752;SDS011;44525;46.052;13.610;2022-10-13T13:22:15;16.80;;;11.57;;
58752;SDS011;44525;46.052;13.610;2022-10-13T13:24:41;16.88;;;11.02;;
58752;SDS011;44525;46.052;13.610;2022-10-13T13:27:23;16.55;;;10.93;;
58752;SDS011;44525;46.052;13.610;2022-10-13T13:29:50;16.80;;;11.10;;
58752;SDS011;44525;46.052;13.610;2022-10-13T13:32:17;18.60;;;11.80;;
58752;SDS011;44525;46.052;13.610;2022-10-13T13:34:43;17.65;;;11.80;;
58752;SDS011;44525;46.052;13.610;2022-10-13T13:37:17;15.40;;;11.25;;
58752;SDS011;44525;46.052;13.610;2022-10-13T13:39:44;16.92;;;12.20;;
58752;SDS011;44525;46.052;13.610;2022-10-13T13:42:13;17.25;;;12.70;;
58752;SDS011;44525;46.052;13.610;2022-10-13T13:44:39;19.60;;;12.68;;
58752;SDS011;44525;46.052;13.610;2022-10-13T13:47:07;18.95;;;12.13;;
58752;SDS011;44525;46.052;13.610;2022-10-13T13:49:39;17.92;;;13.43;;
58752;SDS011;44525;46.052;13.610;2022-10-13T13:52:05;17.95;;;12.50;;
58752;SDS011;44525;46.052;13.610;2022-10-13T13:54:30;18.65;;;12.20;;
58752;SDS011;44525;46.052;13.610;2022-10-13T13:56:56;19.73;;;13.25;;
58752;SDS011;44525;46.052;13.610;2022-10-13T13:59:21;19.65;;;13.57;;
58752;SDS011;44525;46.052;13.610;2022-10-13T14:01:47;20.75;;;13.07;;
58752;SDS011;44525;46.052;13.610;2022-10-13T14:04:12;18.58;;;13.05;;
58752;SDS011;44525;46.052;13.610;2022-10-13T14:06:38;28.95;;;14.70;;
58752;SDS011;44525;46.052;13.610;2022-10-13T14:09:03;19.90;;;13.15;;
58752;SDS011;44525;46.052;13.610;2022-10-13T14:11:29;18.95;;;13.57;;
58752;SDS011;44525;46.052;13.610;2022-10-13T14:13:54;23.75;;;13.52;;
58752;SDS011;44525;46.052;13.610;2022-10-13T14:16:22;24.10;;;13.38;;
58752;SDS011;44525;46.052;13.610;2022-10-13T14:18:47;24.30;;;15.13;;
58752;SDS011;44525;46.052;13.610;2022-10-13T14:21:13;23.63;;;15.15;;
58752;SDS011;44525;46.052;13.610;2022-10-13T14:23:39;25.45;;;14.90;;
58752;SDS011;44525;46.052;13.610;2022-10-13T14:26:09;22.63;;;15.15;;
58752;SDS011;44525;46.052;13.610;2022-10-13T14:28:35;23.08;;;15.02;;
58752;SDS011;44525;46.052;13.610;2022-10-13T14:31:03;25.83;;;16.30;;
58752;SDS011;44525;46.052;13.610;2022-10-13T14:33:30;28.15;;;16.23;;
58752;SDS011;44525;46.052;13.610;2022-10-13T14:36:02;25.35;;;15.05;;
58752;SDS011;44525;46.052;13.610;2022-10-13T14:38:29;26.98;;;15.98;;
58752;SDS011;44525;46.052;13.610;2022-10-13T14:40:58;27.10;;;16.05;;
58752;SDS011;44525;46.052;13.610;2022-10-13T14:43:25;25.40;;;15.75;;
58752;SDS011;44525;46.052;13.610;2022-10-13T14:45:51;26.92;;;15.63;;
58752;SDS011;44525;46.052;13.610;2022-10-13T14:48:16;28.35;;;15.82;;
58752;SDS011;44525;46.052;13.610;2022-10-13T14:50:42;28.73;;;15.85;;
58752;SDS011;44525;46.052;13.610;2022-10-13T14:53:07;27.48;;;15.82;;
58752;SDS011;44525;46.052;13.610;2022-10-13T14:55:39;28.98;;;16.48;;
58752;SDS011;44525;46.052;13.610;2022-10-13T14:58:06;29.60;;;15.73;;
58752;SDS011;44525;46.052;13.610;2022-10-13T15:00:31;29.80;;;16.27;;
58752;SDS011;44525;46.052;13.610;2022-10-13T15:02:57;28.90;;;17.50;;
58752;SDS011;44525;46.052;13.610;2022-10-13T15:05:22;34.22;;;18.10;;
58752;SDS011;44525;46.052;13.610;2022-10-13T15:07:48;33.50;;;18.92;;
58752;SDS011;44525;46.052;13.610;2022-10-13T15:10:13;32.67;;;19.30;;
58752;SDS011;44525;46.052;13.610;2022-10-13T15:12:39;33.58;;;21.30;;
58752;SDS011;44525;46.052;13.610;2022-10-13T15:15:04;30.80;;;19.42;;
58752;SDS011;44525;46.052;13.610;2022-10-13T15:17:30;28.63;;;17.65;;
58752;SDS011;44525;46.052;13.610;2022-10-13T15:19:57;31.60;;;19.08;;
58752;SDS011;44525;46.052;13.610;2022-10-13T15:22:22;46.42;;;19.27;;
58752;SDS011;44525;46.052;13.610;2022-10-13T15:24:48;31.25;;;18.05;;
58752;SDS011;44525;46.052;13.610;2022-10-13T15:27:13;29.40;;;18.02;;
58752;SDS011;44525;46.052;13.610;2022-10-13T15:29:39;36.72;;;19.80;;
58752;SDS011;44525;46.052;13.610;2022-10-13T15:32:09;29.83;;;18.40;;
58752;SDS011;44525;46.052;13.610;2022-10-13T15:34:38;28.25;;;19.33;;
58752;SDS011;44525;46.052;13.610;2022-10-13T15:37:04;30.65;;;18.80;;
58752;SDS011;44525;46.052;13.610;2022-10-13T15:39:30;28.63;;;18.77;;
58752;SDS011;44525;46.052;13.610;2022-10-13T15:41:55;29.80;;;19.35;;
58752;SDS011;44525;46.052;13.610;2022-10-13T15:44:24;33.15;;;18.90;;
58752;SDS011;44525;46.052;13.610;2022-10-13T15:46:50;35.78;;;20.08;;
58752;SDS011;44525;46.052;13.610;2022-10-13T15:49:19;29.10;;;18.48;;
58752;SDS011;44525;46.052;13.610;2022-10-13T15:51:45;33.25;;;19.38;;
58752;SDS011;44525;46.052;13.610;2022-10-13T15:54:10;33.10;;;20.30;;
58752;SDS011;44525;46.052;13.610;2022-10-13T15:56:36;33.53;;;19.52;;
58752;SDS011;44525;46.052;13.610;2022-10-13T15:59:02;39.58;;;19.33;;
58752;SDS011;44525;46.052;13.610;2022-10-13T16:01:28;33.20;;;19.73;;
58752;SDS011;44525;46.052;13.610;2022-10-13T16:03:53;33.83;;;20.63;;
58752;SDS011;44525;46.052;13.610;2022-10-13T16:06:19;35.42;;;20.13;;
58752;SDS011;44525;46.052;13.610;2022-10-13T16:08:46;34.65;;;20.88;;
58752;SDS011;44525;46.052;13.610;2022-10-13T16:11:14;31.17;;;20.80;;
58752;SDS011;44525;46.052;13.610;2022-10-13T16:13:43;33.45;;;20.45;;